sensor_id;sensor_type;location;lat;lon;timestamp;pressure;altitude;pressure_sealevel;temperature;humidity
6208;BME280;3137;51.550;7.060;2023-04-10T00:01:44;101739.66;;;5.86;77.45
6208;BME280;3137;51.550;7.060;2023-04-10T00:04:11;101738.06;;;5.82;77.85
6208;BME280;3137;51.550;7.060;2023-04-10T00:06:37;101730.09;;;5.82;78.09
6208;BME280;3137;51.550;7.060;2023-04-10T00:09:06;101732.78;;;5.81;78.04
6208;BME280;3137;51.550;7.060;2023-04-10T00:11:32;101725.63;;;5.83;78.24
6208;BME280;3137;51.550;7.060;2023-04-10T00:13:59;101721.50;;;5.74;79.03
6208;BME280;3137;51.550;7.060;2023-04-10T00:16:25;101721.41;;;5.77;78.99
6208;BME280;3137;51.550;7.060;2023-04-10T00:18:51;101712.56;;;5.76;79.00
6208;BME280;3137;51.550;7.060;2023-04-10T00:21:18;101712.72;;;5.72;79.23
6208;BME280;3137;51.550;7.060;2023-04-10T00:23:44;101705.69;;;5.71;79.25
6208;BME280;3137;51.550;7.060;2023-04-10T00:26:10;101702.91;;;5.74;79.49
6208;BME280;3137;51.550;7.060;2023-04-10T00:28:39;101697.75;;;5.69;79.38
6208;BME280;3137;51.550;7.060;2023-04-10T00:31:05;101692.44;;;5.69;78.70
6208;BME280;3137;51.550;7.060;2023-04-10T00:33:32;101689.16;;;5.63;78.72
6208;BME280;3137;51.550;7.060;2023-04-10T00:35:58;101693.41;;;5.67;78.52
6208;BME280;3137;51.550;7.060;2023-04-10T00:38:24;101679.97;;;5.71;78.31
6208;BME280;3137;51.550;7.060;2023-04-10T00:40:51;101687.06;;;5.71;77.88
6208;BME280;3137;51.550;7.060;2023-04-10T00:43:17;101682.50;;;5.74;77.93
6208;BME280;3137;51.550;7.060;2023-04-10T00:45:45;101684.13;;;5.79;77.77
6208;BME280;3137;51.550;7.060;2023-04-10T00:48:14;101682.34;;;5.79;77.53
6208;BME280;3137;51.550;7.060;2023-04-10T00:50:42;101681.31;;;5.83;77.71
6208;BME280;3137;51.550;7.060;2023-04-10T00:53:08;101677.84;;;5.81;77.69
6208;BME280;3137;51.550;7.060;2023-04-10T00:55:34;101673.44;;;5.80;78.21
6208;BME280;3137;51.550;7.060;2023-04-10T00:58:02;101676.13;;;5.80;78.58
6208;BME280;3137;51.550;7.060;2023-04-10T01:00:28;101679.69;;;5.79;78.69
6208;BME280;3137;51.550;7.060;2023-04-10T01:02:56;101672.53;;;5.81;78.91
6208;BME280;3137;51.550;7.060;2023-04-10T01:05:23;101672.47;;;5.83;78.89
6208;BME280;3137;51.550;7.060;2023-04-10T01:08:07;101678.88;;;5.77;78.93
6208;BME280;3137;51.550;7.060;2023-04-10T01:10:49;101678.16;;;5.72;78.15
6208;BME280;3137;51.550;7.060;2023-04-10T01:13:26;101679.06;;;5.72;78.03
6208;BME280;3137;51.550;7.060;2023-04-10T01:16:00;101680.94;;;5.69;77.68
6208;BME280;3137;51.550;7.060;2023-04-10T01:18:38;101677.41;;;5.68;77.09
6208;BME280;3137;51.550;7.060;2023-04-10T01:21:07;101673.75;;;5.72;76.53
6208;BME280;3137;51.550;7.060;2023-04-10T01:24:13;101666.19;;;5.60;76.18
6208;BME280;3137;51.550;7.060;2023-04-10T01:29:31;101652.03;;;5.60;76.12
6208;BME280;3137;51.550;7.060;2023-04-10T01:32:20;101651.13;;;5.61;75.95
6208;BME280;3137;51.550;7.060;2023-04-10T01:34:50;101643.22;;;5.59;75.89
6208;BME280;3137;51.550;7.060;2023-04-10T01:37:21;101641.56;;;5.55;75.78
6208;BME280;3137;51.550;7.060;2023-04-10T01:39:51;101639.91;;;5.52;75.88
6208;BME280;3137;51.550;7.060;2023-04-10T01:42:21;101638.00;;;5.56;76.23
6208;BME280;3137;51.550;7.060;2023-04-10T01:44:49;101640.59;;;5.58;76.26
6208;BME280;3137;51.550;7.060;2023-04-10T01:47:17;101632.56;;;5.59;76.41
6208;BME280;3137;51.550;7.060;2023-04-10T01:49:46;101630.09;;;5.54;76.40
6208;BME280;3137;51.550;7.060;2023-04-10T01:52:13;101620.56;;;5.49;76.54
6208;BME280;3137;51.550;7.060;2023-04-10T01:54:46;101632.16;;;5.46;76.71
6208;BME280;3137;51.550;7.060;2023-04-10T01:57:19;101635.72;;;5.45;76.74
6208;BME280;3137;51.550;7.060;2023-04-10T01:59:57;101628.63;;;5.46;76.34
6208;BME280;3137;51.550;7.060;2023-04-10T02:02:23;101633.06;;;5.45;76.34
6208;BME280;3137;51.550;7.060;2023-04-10T02:04:50;101634.00;;;5.44;76.18
6208;BME280;3137;51.550;7.060;2023-04-10T02:10:02;101633.22;;;5.41;75.99
6208;BME280;3137;51.550;7.060;2023-04-10T02:12:35;101629.84;;;5.37;75.83
6208;BME280;3137;51.550;7.060;2023-04-10T02:15:04;101628.44;;;5.27;76.10
6208;BME280;3137;51.550;7.060;2023-04-10T02:17:34;101629.44;;;5.23;75.98
6208;BME280;3137;51.550;7.060;2023-04-10T02:20:02;101621.66;;;5.18;76.17
6208;BME280;3137;51.550;7.060;2023-04-10T02:22:30;101616.50;;;5.14;76.75
6208;BME280;3137;51.550;7.060;2023-04-10T02:24:57;101615.66;;;5.11;76.89
6208;BME280;3137;51.550;7.060;2023-04-10T02:27:29;101611.28;;;5.10;76.59
6208;BME280;3137;51.550;7.060;2023-04-10T02:29:57;101606.88;;;5.09;76.77
6208;BME280;3137;51.550;7.060;2023-04-10T02:32:25;101610.59;;;5.05;77.54
6208;BME280;3137;51.550;7.060;2023-04-10T02:34:52;101606.97;;;5.08;77.98
6208;BME280;3137;51.550;7.060;2023-04-10T02:37:18;101606.16;;;5.06;78.94
6208;BME280;3137;51.550;7.060;2023-04-10T02:39:45;101610.47;;;5.08;78.75
6208;BME280;3137;51.550;7.060;2023-04-10T02:42:11;101607.72;;;5.11;78.72
6208;BME280;3137;51.550;7.060;2023-04-10T02:44:38;101602.47;;;5.10;78.61
6208;BME280;3137;51.550;7.060;2023-04-10T02:47:05;101609.53;;;5.09;78.79
6208;BME280;3137;51.550;7.060;2023-04-10T02:49:34;101612.31;;;5.06;78.75
6208;BME280;3137;51.550;7.060;2023-04-10T02:52:07;101619.41;;;5.06;79.43
6208;BME280;3137;51.550;7.060;2023-04-10T02:54:38;101610.59;;;5.05;79.32
6208;BME280;3137;51.550;7.060;2023-04-10T02:57:05;101614.16;;;5.04;79.22
6208;BME280;3137;51.550;7.060;2023-04-10T02:59:32;101615.09;;;5.03;79.54
6208;BME280;3137;51.550;7.060;2023-04-10T03:02:00;101610.91;;;4.96;78.98
6208;BME280;3137;51.550;7.060;2023-04-10T03:04:33;101597.63;;;4.96;79.54
6208;BME280;3137;51.550;7.060;2023-04-10T03:06:59;101606.25;;;5.03;79.25
6208;BME280;3137;51.550;7.060;2023-04-10T03:09:26;101593.88;;;5.02;79.29
6208;BME280;3137;51.550;7.060;2023-04-10T03:11:53;101598.34;;;5.01;79.73
6208;BME280;3137;51.550;7.060;2023-04-10T03:14:19;101590.34;;;5.03;79.84
6208;BME280;3137;51.550;7.060;2023-04-10T03:16:46;101579.88;;;4.98;79.42
6208;BME280;3137;51.550;7.060;2023-04-10T03:19:13;101581.72;;;4.96;79.63
6208;BME280;3137;51.550;7.060;2023-04-10T03:21:39;101579.97;;;4.95;79.57
6208;BME280;3137;51.550;7.060;2023-04-10T03:24:05;101572.09;;;4.92;80.37
6208;BME280;3137;51.550;7.060;2023-04-10T03:26:32;101565.88;;;4.93;80.68
6208;BME280;3137;51.550;7.060;2023-04-10T03:28:58;101559.78;;;4.91;80.84
6208;BME280;3137;51.550;7.060;2023-04-10T03:31:26;101565.72;;;4.98;81.28
6208;BME280;3137;51.550;7.060;2023-04-10T03:33:55;101560.50;;;4.95;81.13
6208;BME280;3137;51.550;7.060;2023-04-10T03:36:23;101564.91;;;4.96;81.64
6208;BME280;3137;51.550;7.060;2023-04-10T03:38:49;101556.97;;;4.96;81.56
6208;BME280;3137;51.550;7.060;2023-04-10T03:41:17;101566.59;;;4.98;81.97
6208;BME280;3137;51.550;7.060;2023-04-10T03:43:44;101567.34;;;5.02;81.88
6208;BME280;3137;51.550;7.060;2023-04-10T03:46:11;101563.88;;;5.00;82.38
6208;BME280;3137;51.550;7.060;2023-04-10T03:48:42;101559.34;;;5.03;81.95
6208;BME280;3137;51.550;7.060;2023-04-10T03:51:09;101555.63;;;5.07;82.21
6208;BME280;3137;51.550;7.060;2023-04-10T03:53:36;101561.91;;;5.05;82.14
6208;BME280;3137;51.550;7.060;2023-04-10T03:56:07;101553.88;;;5.08;81.67
6208;BME280;3137;51.550;7.060;2023-04-10T03:58:34;101557.22;;;5.13;81.39
6208;BME280;3137;51.550;7.060;2023-04-10T04:01:01;101560.56;;;5.18;81.37
6208;BME280;3137;51.550;7.060;2023-04-10T04:03:34;101557.06;;;5.18;80.74
6208;BME280;3137;51.550;7.060;2023-04-10T04:06:24;101553.19;;;5.26;80.49
6208;BME280;3137;51.550;7.060;2023-04-10T04:09:09;101550.81;;;5.19;80.58
6208;BME280;3137;51.550;7.060;2023-04-10T04:11:43;101547.19;;;5.21;81.07
6208;BME280;3137;51.550;7.060;2023-04-10T04:14:28;101545.47;;;5.20;80.63
6208;BME280;3137;51.550;7.060;2023-04-10T04:17:09;101543.88;;;5.15;80.66
6208;BME280;3137;51.550;7.060;2023-04-10T04:19:54;101543.09;;;5.13;80.80
6208;BME280;3137;51.550;7.060;2023-04-10T04:22:56;101539.63;;;5.10;80.95
6208;BME280;3137;51.550;7.060;2023-04-10T04:25:41;101531.53;;;5.14;81.03
6208;BME280;3137;51.550;7.060;2023-04-10T04:28:40;101532.72;;;5.05;81.10
6208;BME280;3137;51.550;7.060;2023-04-10T04:31:15;101538.75;;;5.10;81.13
6208;BME280;3137;51.550;7.060;2023-04-10T04:34:07;101543.13;;;5.11;81.35
6208;BME280;3137;51.550;7.060;2023-04-10T04:36:34;101545.09;;;5.06;81.48
6208;BME280;3137;51.550;7.060;2023-04-10T04:39:39;101538.75;;;5.10;81.75
6208;BME280;3137;51.550;7.060;2023-04-10T04:42:16;101532.66;;;5.06;81.15
6208;BME280;3137;51.550;7.060;2023-04-10T04:45:12;101534.34;;;5.09;80.79
6208;BME280;3137;51.550;7.060;2023-04-10T04:47:57;101531.69;;;5.09;79.91
6208;BME280;3137;51.550;7.060;2023-04-10T04:50:29;101530.88;;;5.07;79.65
6208;BME280;3137;51.550;7.060;2023-04-10T04:53:09;101537.13;;;5.06;79.13
6208;BME280;3137;51.550;7.060;2023-04-10T04:55:45;101530.72;;;5.11;77.71
6208;BME280;3137;51.550;7.060;2023-04-10T04:58:31;101536.63;;;5.20;78.01
6208;BME280;3137;51.550;7.060;2023-04-10T05:01:18;101535.84;;;5.16;77.44
6208;BME280;3137;51.550;7.060;2023-04-10T05:04:03;101528.72;;;5.18;77.31
6208;BME280;3137;51.550;7.060;2023-04-10T05:06:42;101531.19;;;5.23;77.49
6208;BME280;3137;51.550;7.060;2023-04-10T05:09:27;101536.22;;;5.30;77.55
6208;BME280;3137;51.550;7.060;2023-04-10T05:12:31;101529.06;;;5.32;77.71
6208;BME280;3137;51.550;7.060;2023-04-10T05:15:02;101528.09;;;5.35;77.37
6208;BME280;3137;51.550;7.060;2023-04-10T05:17:41;101532.28;;;5.41;77.42
6208;BME280;3137;51.550;7.060;2023-04-10T05:20:15;101530.41;;;5.44;76.57
6208;BME280;3137;51.550;7.060;2023-04-10T05:22:55;101526.88;;;5.44;76.75
6208;BME280;3137;51.550;7.060;2023-04-10T05:25:34;101526.81;;;5.45;76.29
6208;BME280;3137;51.550;7.060;2023-04-10T05:28:07;101530.31;;;5.46;76.15
6208;BME280;3137;51.550;7.060;2023-04-10T05:30:58;101532.94;;;5.47;76.00
6208;BME280;3137;51.550;7.060;2023-04-10T05:33:36;101538.13;;;5.50;75.77
6208;BME280;3137;51.550;7.060;2023-04-10T05:36:09;101535.13;;;5.60;75.06
6208;BME280;3137;51.550;7.060;2023-04-10T05:38:50;101534.13;;;5.62;75.60
6208;BME280;3137;51.550;7.060;2023-04-10T05:41:35;101535.97;;;5.60;75.61
6208;BME280;3137;51.550;7.060;2023-04-10T05:44:18;101530.94;;;5.54;77.30
6208;BME280;3137;51.550;7.060;2023-04-10T05:47:13;101526.13;;;5.64;75.96
6208;BME280;3137;51.550;7.060;2023-04-10T05:49:58;101520.16;;;5.81;74.44
6208;BME280;3137;51.550;7.060;2023-04-10T05:52:49;101525.69;;;5.98;73.54
6208;BME280;3137;51.550;7.060;2023-04-10T05:55:40;101521.50;;;6.14;72.60
6208;BME280;3137;51.550;7.060;2023-04-10T05:58:37;101521.84;;;6.27;73.05
6208;BME280;3137;51.550;7.060;2023-04-10T06:01:15;101525.50;;;6.47;71.45
6208;BME280;3137;51.550;7.060;2023-04-10T06:03:55;101526.50;;;6.65;70.31
6208;BME280;3137;51.550;7.060;2023-04-10T06:06:24;101532.88;;;6.82;70.07
6208;BME280;3137;51.550;7.060;2023-04-10T06:08:51;101532.78;;;7.05;68.84
6208;BME280;3137;51.550;7.060;2023-04-10T06:11:18;101523.75;;;7.28;69.93
6208;BME280;3137;51.550;7.060;2023-04-10T06:13:49;101524.41;;;7.52;68.66
6208;BME280;3137;51.550;7.060;2023-04-10T06:16:16;101526.09;;;7.73;67.38
6208;BME280;3137;51.550;7.060;2023-04-10T06:18:44;101509.00;;;7.96;66.37
6208;BME280;3137;51.550;7.060;2023-04-10T06:21:11;101510.00;;;8.13;64.80
6208;BME280;3137;51.550;7.060;2023-04-10T06:23:38;101501.38;;;8.25;64.21
6208;BME280;3137;51.550;7.060;2023-04-10T06:26:04;101504.09;;;8.42;63.58
6208;BME280;3137;51.550;7.060;2023-04-10T06:28:31;101510.78;;;8.51;64.49
6208;BME280;3137;51.550;7.060;2023-04-10T06:31:00;101505.78;;;8.62;63.95
6208;BME280;3137;51.550;7.060;2023-04-10T06:33:32;101502.69;;;8.70;63.00
6208;BME280;3137;51.550;7.060;2023-04-10T06:36:03;101493.03;;;8.85;61.72
6208;BME280;3137;51.550;7.060;2023-04-10T06:38:35;101495.28;;;8.92;61.71
6208;BME280;3137;51.550;7.060;2023-04-10T06:41:06;101497.41;;;9.03;60.03
6208;BME280;3137;51.550;7.060;2023-04-10T06:43:33;101499.59;;;9.12;60.33
6208;BME280;3137;51.550;7.060;2023-04-10T06:46:00;101492.63;;;9.26;59.48
6208;BME280;3137;51.550;7.060;2023-04-10T06:48:26;101502.59;;;9.40;59.32
6208;BME280;3137;51.550;7.060;2023-04-10T06:50:53;101502.44;;;9.58;56.70
6208;BME280;3137;51.550;7.060;2023-04-10T06:53:19;101492.63;;;9.75;56.96
6208;BME280;3137;51.550;7.060;2023-04-10T06:55:46;101505.66;;;9.97;56.29
6208;BME280;3137;51.550;7.060;2023-04-10T06:58:12;101502.97;;;10.13;54.82
6208;BME280;3137;51.550;7.060;2023-04-10T07:00:39;101505.03;;;10.39;54.00
6208;BME280;3137;51.550;7.060;2023-04-10T07:03:06;101503.75;;;10.61;51.95
6208;BME280;3137;51.550;7.060;2023-04-10T07:05:32;101495.28;;;10.83;52.91
6208;BME280;3137;51.550;7.060;2023-04-10T07:07:59;101490.53;;;11.02;51.07
6208;BME280;3137;51.550;7.060;2023-04-10T07:10:25;101484.88;;;11.21;52.62
6208;BME280;3137;51.550;7.060;2023-04-10T07:12:52;101478.00;;;11.32;50.27
6208;BME280;3137;51.550;7.060;2023-04-10T07:15:18;101476.34;;;11.43;51.45
6208;BME280;3137;51.550;7.060;2023-04-10T07:17:46;101483.91;;;11.51;49.04
6208;BME280;3137;51.550;7.060;2023-04-10T07:20:13;101476.72;;;11.52;49.37
6208;BME280;3137;51.550;7.060;2023-04-10T07:22:39;101465.81;;;11.55;49.08
6208;BME280;3137;51.550;7.060;2023-04-10T07:25:06;101469.13;;;11.58;48.01
6208;BME280;3137;51.550;7.060;2023-04-10T07:27:33;101462.41;;;11.65;48.28
6208;BME280;3137;51.550;7.060;2023-04-10T07:29:59;101462.59;;;11.77;47.02
6208;BME280;3137;51.550;7.060;2023-04-10T07:32:26;101456.53;;;11.87;46.01
6208;BME280;3137;51.550;7.060;2023-04-10T07:34:52;101456.25;;;11.92;45.62
6208;BME280;3137;51.550;7.060;2023-04-10T07:37:19;101446.66;;;12.02;46.12
6208;BME280;3137;51.550;7.060;2023-04-10T07:39:45;101435.38;;;12.10;45.91
6208;BME280;3137;51.550;7.060;2023-04-10T07:42:12;101437.56;;;12.18;47.32
6208;BME280;3137;51.550;7.060;2023-04-10T07:44:38;101436.63;;;12.31;45.70
6208;BME280;3137;51.550;7.060;2023-04-10T07:47:05;101433.50;;;12.38;45.27
6208;BME280;3137;51.550;7.060;2023-04-10T07:49:31;101436.09;;;12.39;43.79
6208;BME280;3137;51.550;7.060;2023-04-10T07:51:58;101437.25;;;12.35;44.17
6208;BME280;3137;51.550;7.060;2023-04-10T07:54:24;101432.66;;;12.37;45.50
6208;BME280;3137;51.550;7.060;2023-04-10T07:56:51;101419.00;;;12.40;46.24
6208;BME280;3137;51.550;7.060;2023-04-10T07:59:18;101417.97;;;12.43;44.58
6208;BME280;3137;51.550;7.060;2023-04-10T08:01:44;101406.47;;;12.41;44.79
6208;BME280;3137;51.550;7.060;2023-04-10T08:04:11;101405.84;;;12.50;44.87
6208;BME280;3137;51.550;7.060;2023-04-10T08:06:37;101417.88;;;12.57;45.00
6208;BME280;3137;51.550;7.060;2023-04-10T08:09:04;101408.06;;;12.69;43.41
6208;BME280;3137;51.550;7.060;2023-04-10T08:11:34;101408.19;;;12.93;43.62
6208;BME280;3137;51.550;7.060;2023-04-10T08:14:03;101402.53;;;13.22;44.20
6208;BME280;3137;51.550;7.060;2023-04-10T08:16:33;101392.09;;;13.43;43.72
6208;BME280;3137;51.550;7.060;2023-04-10T08:19:00;101386.97;;;13.64;42.12
6208;BME280;3137;51.550;7.060;2023-04-10T08:21:28;101385.81;;;13.79;41.96
6208;BME280;3137;51.550;7.060;2023-04-10T08:23:56;101388.06;;;13.85;40.96
6208;BME280;3137;51.550;7.060;2023-04-10T08:26:24;101384.09;;;14.02;41.85
6208;BME280;3137;51.550;7.060;2023-04-10T08:28:52;101391.31;;;14.01;39.79
6208;BME280;3137;51.550;7.060;2023-04-10T08:31:21;101378.66;;;13.91;41.06
6208;BME280;3137;51.550;7.060;2023-04-10T08:33:49;101374.47;;;14.11;41.67
6208;BME280;3137;51.550;7.060;2023-04-10T08:36:15;101381.47;;;14.24;40.36
6208;BME280;3137;51.550;7.060;2023-04-10T08:38:45;101380.31;;;14.40;39.76
6208;BME280;3137;51.550;7.060;2023-04-10T08:41:14;101365.78;;;14.54;38.44
6208;BME280;3137;51.550;7.060;2023-04-10T08:43:41;101371.03;;;14.55;39.68
6208;BME280;3137;51.550;7.060;2023-04-10T08:46:08;101362.94;;;14.55;38.78
6208;BME280;3137;51.550;7.060;2023-04-10T08:48:54;101351.59;;;14.63;39.75
6208;BME280;3137;51.550;7.060;2023-04-10T08:51:29;101355.19;;;14.51;37.43
6208;BME280;3137;51.550;7.060;2023-04-10T08:54:05;101359.91;;;14.60;37.45
6208;BME280;3137;51.550;7.060;2023-04-10T08:56:34;101358.50;;;14.43;36.90
6208;BME280;3137;51.550;7.060;2023-04-10T08:59:02;101351.25;;;14.43;36.69
6208;BME280;3137;51.550;7.060;2023-04-10T09:01:29;101350.41;;;14.43;37.77
6208;BME280;3137;51.550;7.060;2023-04-10T09:03:56;101352.16;;;14.55;37.30
6208;BME280;3137;51.550;7.060;2023-04-10T09:06:23;101320.25;;;14.38;36.93
6208;BME280;3137;51.550;7.060;2023-04-10T09:08:50;101330.06;;;14.50;38.57
6208;BME280;3137;51.550;7.060;2023-04-10T09:11:16;101327.31;;;14.63;36.92
6208;BME280;3137;51.550;7.060;2023-04-10T09:13:43;101327.31;;;14.63;38.05
6208;BME280;3137;51.550;7.060;2023-04-10T09:16:10;101326.81;;;14.69;37.26
6208;BME280;3137;51.550;7.060;2023-04-10T09:18:41;101336.13;;;14.76;37.46
6208;BME280;3137;51.550;7.060;2023-04-10T09:21:16;101319.84;;;14.78;37.04
6208;BME280;3137;51.550;7.060;2023-04-10T09:23:45;101324.75;;;14.73;36.56
6208;BME280;3137;51.550;7.060;2023-04-10T09:26:27;101322.50;;;15.00;37.42
6208;BME280;3137;51.550;7.060;2023-04-10T09:29:04;101326.81;;;15.03;36.59
6208;BME280;3137;51.550;7.060;2023-04-10T09:31:33;101329.75;;;15.11;37.35
6208;BME280;3137;51.550;7.060;2023-04-10T09:34:19;101334.03;;;15.14;37.47
6208;BME280;3137;51.550;7.060;2023-04-10T09:36:59;101329.59;;;15.24;38.72
6208;BME280;3137;51.550;7.060;2023-04-10T09:39:37;101333.88;;;15.26;36.31
6208;BME280;3137;51.550;7.060;2023-04-10T09:42:09;101330.41;;;15.47;36.66
6208;BME280;3137;51.550;7.060;2023-04-10T09:44:38;101329.00;;;15.64;37.92
6208;BME280;3137;51.550;7.060;2023-04-10T09:49:53;101311.69;;;15.66;36.34
6208;BME280;3137;51.550;7.060;2023-04-10T09:52:23;101300.75;;;15.36;35.63
6208;BME280;3137;51.550;7.060;2023-04-10T09:54:55;101299.97;;;15.45;36.64
6208;BME280;3137;51.550;7.060;2023-04-10T09:57:23;101301.00;;;15.32;36.41
6208;BME280;3137;51.550;7.060;2023-04-10T09:59:54;101300.72;;;15.47;37.80
6208;BME280;3137;51.550;7.060;2023-04-10T10:02:23;101307.31;;;15.54;36.53
6208;BME280;3137;51.550;7.060;2023-04-10T10:04:50;101293.41;;;15.70;37.39
6208;BME280;3137;51.550;7.060;2023-04-10T10:07:19;101298.19;;;15.66;38.22
6208;BME280;3137;51.550;7.060;2023-04-10T10:09:47;101290.59;;;15.71;36.14
6208;BME280;3137;51.550;7.060;2023-04-10T10:12:23;101284.13;;;15.84;38.14
6208;BME280;3137;51.550;7.060;2023-04-10T10:15:08;101286.31;;;15.90;36.43
6208;BME280;3137;51.550;7.060;2023-04-10T10:17:47;101276.75;;;15.86;35.44
6208;BME280;3137;51.550;7.060;2023-04-10T10:20:17;101272.66;;;15.91;36.59
6208;BME280;3137;51.550;7.060;2023-04-10T10:22:46;101269.31;;;15.99;36.32
6208;BME280;3137;51.550;7.060;2023-04-10T10:25:13;101261.06;;;16.01;36.89
6208;BME280;3137;51.550;7.060;2023-04-10T10:27:40;101257.50;;;15.79;36.50
6208;BME280;3137;51.550;7.060;2023-04-10T10:30:08;101244.41;;;15.74;36.73
6208;BME280;3137;51.550;7.060;2023-04-10T10:32:55;101245.59;;;16.03;37.55
6208;BME280;3137;51.550;7.060;2023-04-10T10:35:23;101243.84;;;16.02;36.25
6208;BME280;3137;51.550;7.060;2023-04-10T10:37:55;101240.34;;;16.32;36.18
6208;BME280;3137;51.550;7.060;2023-04-10T10:40:30;101227.94;;;16.29;33.99
6208;BME280;3137;51.550;7.060;2023-04-10T10:43:55;101226.19;;;16.49;36.75
6208;BME280;3137;51.550;7.060;2023-04-10T10:48:23;101207.47;;;16.27;35.69
6208;BME280;3137;51.550;7.060;2023-04-10T10:53:36;101197.78;;;16.24;34.14
6208;BME280;3137;51.550;7.060;2023-04-10T11:01:13;101192.47;;;16.94;33.27
6208;BME280;3137;51.550;7.060;2023-04-10T11:03:40;101183.84;;;16.69;31.98
6208;BME280;3137;51.550;7.060;2023-04-10T11:06:08;101177.84;;;16.66;33.28
6208;BME280;3137;51.550;7.060;2023-04-10T11:08:36;101167.25;;;16.43;33.39
6208;BME280;3137;51.550;7.060;2023-04-10T11:11:19;101166.00;;;16.47;31.99
6208;BME280;3137;51.550;7.060;2023-04-10T11:16:41;101162.22;;;16.69;34.47
6208;BME280;3137;51.550;7.060;2023-04-10T11:19:12;101143.53;;;16.66;31.20
6208;BME280;3137;51.550;7.060;2023-04-10T11:22:02;101144.22;;;16.58;30.35
6208;BME280;3137;51.550;7.060;2023-04-10T11:24:56;101135.69;;;16.63;32.34
6208;BME280;3137;51.550;7.060;2023-04-10T11:27:43;101138.00;;;16.77;31.07
6208;BME280;3137;51.550;7.060;2023-04-10T11:30:30;101128.78;;;16.90;30.27
6208;BME280;3137;51.550;7.060;2023-04-10T11:32:58;101127.22;;;17.16;32.08
6208;BME280;3137;51.550;7.060;2023-04-10T11:35:26;101131.34;;;17.30;31.05
6208;BME280;3137;51.550;7.060;2023-04-10T11:38:10;101119.81;;;17.18;31.65
6208;BME280;3137;51.550;7.060;2023-04-10T11:41:01;101131.91;;;17.05;30.35
6208;BME280;3137;51.550;7.060;2023-04-10T11:43:30;101125.22;;;16.89;30.00
6208;BME280;3137;51.550;7.060;2023-04-10T11:45:59;101116.09;;;16.90;30.33
6208;BME280;3137;51.550;7.060;2023-04-10T11:48:26;101117.41;;;17.06;31.39
6208;BME280;3137;51.550;7.060;2023-04-10T11:50:53;101107.44;;;17.06;30.76
6208;BME280;3137;51.550;7.060;2023-04-10T11:53:20;101102.88;;;17.07;30.16
6208;BME280;3137;51.550;7.060;2023-04-10T11:55:49;101115.69;;;16.85;29.10
6208;BME280;3137;51.550;7.060;2023-04-10T11:58:27;101094.63;;;16.79;29.29
6208;BME280;3137;51.550;7.060;2023-04-10T12:01:03;101093.78;;;16.88;29.18
6208;BME280;3137;51.550;7.060;2023-04-10T12:03:34;101089.06;;;17.10;28.40
6208;BME280;3137;51.550;7.060;2023-04-10T12:06:03;101084.09;;;17.05;29.06
6208;BME280;3137;51.550;7.060;2023-04-10T12:08:34;101077.66;;;17.06;28.54
6208;BME280;3137;51.550;7.060;2023-04-10T12:11:01;101073.69;;;17.10;28.41
6208;BME280;3137;51.550;7.060;2023-04-10T12:13:29;101060.44;;;17.07;29.98
6208;BME280;3137;51.550;7.060;2023-04-10T12:16:01;101062.56;;;17.04;28.54
6208;BME280;3137;51.550;7.060;2023-04-10T12:18:28;101054.47;;;16.94;29.41
6208;BME280;3137;51.550;7.060;2023-04-10T12:20:56;101055.97;;;17.26;31.37
6208;BME280;3137;51.550;7.060;2023-04-10T12:23:26;101050.69;;;17.34;30.42
6208;BME280;3137;51.550;7.060;2023-04-10T12:25:55;101047.13;;;17.33;29.59
6208;BME280;3137;51.550;7.060;2023-04-10T12:28:31;101049.69;;;17.35;28.36
6208;BME280;3137;51.550;7.060;2023-04-10T12:30:58;101041.66;;;17.53;30.57
6208;BME280;3137;51.550;7.060;2023-04-10T12:33:24;101035.16;;;17.73;28.96
6208;BME280;3137;51.550;7.060;2023-04-10T12:35:51;101034.84;;;17.86;28.27
6208;BME280;3137;51.550;7.060;2023-04-10T12:38:42;101033.66;;;17.98;28.89
6208;BME280;3137;51.550;7.060;2023-04-10T12:41:10;101027.56;;;18.14;28.73
6208;BME280;3137;51.550;7.060;2023-04-10T12:43:39;101023.28;;;18.12;29.11
6208;BME280;3137;51.550;7.060;2023-04-10T12:46:08;101039.16;;;18.06;28.33
6208;BME280;3137;51.550;7.060;2023-04-10T12:48:35;101014.38;;;18.01;28.04
6208;BME280;3137;51.550;7.060;2023-04-10T12:51:01;101010.75;;;18.28;30.30
6208;BME280;3137;51.550;7.060;2023-04-10T12:53:29;101014.81;;;18.24;28.07
6208;BME280;3137;51.550;7.060;2023-04-10T12:56:00;100999.06;;;18.10;28.59
6208;BME280;3137;51.550;7.060;2023-04-10T12:58:27;101000.50;;;18.04;29.48
6208;BME280;3137;51.550;7.060;2023-04-10T13:00:54;100987.03;;;17.95;29.32
6208;BME280;3137;51.550;7.060;2023-04-10T13:03:21;100980.00;;;17.74;28.52
6208;BME280;3137;51.550;7.060;2023-04-10T13:05:48;100975.22;;;17.58;31.24
6208;BME280;3137;51.550;7.060;2023-04-10T13:08:15;100969.22;;;17.55;30.64
6208;BME280;3137;51.550;7.060;2023-04-10T13:10:41;100972.16;;;17.43;29.78
6208;BME280;3137;51.550;7.060;2023-04-10T13:13:08;100963.00;;;17.44;29.69
6208;BME280;3137;51.550;7.060;2023-04-10T13:15:38;100957.72;;;17.53;30.11
6208;BME280;3137;51.550;7.060;2023-04-10T13:18:06;100963.66;;;17.56;28.71
6208;BME280;3137;51.550;7.060;2023-04-10T13:20:33;100960.50;;;17.61;29.24
6208;BME280;3137;51.550;7.060;2023-04-10T13:23:01;100960.41;;;17.53;28.96
6208;BME280;3137;51.550;7.060;2023-04-10T13:25:32;100957.84;;;17.51;29.62
6208;BME280;3137;51.550;7.060;2023-04-10T13:28:00;100953.41;;;17.50;29.70
6208;BME280;3137;51.550;7.060;2023-04-10T13:30:27;100956.50;;;17.65;29.81
6208;BME280;3137;51.550;7.060;2023-04-10T13:32:53;100939.81;;;17.70;29.05
6208;BME280;3137;51.550;7.060;2023-04-10T13:35:20;100935.13;;;17.90;32.00
6208;BME280;3137;51.550;7.060;2023-04-10T13:37:47;100936.38;;;17.95;30.04
6208;BME280;3137;51.550;7.060;2023-04-10T13:40:13;100922.06;;;17.75;29.42
6208;BME280;3137;51.550;7.060;2023-04-10T13:42:40;100914.25;;;17.72;28.83
6208;BME280;3137;51.550;7.060;2023-04-10T13:45:08;100910.19;;;17.58;30.50
6208;BME280;3137;51.550;7.060;2023-04-10T13:47:34;100914.13;;;17.46;28.93
6208;BME280;3137;51.550;7.060;2023-04-10T13:50:01;100907.03;;;17.35;29.34
6208;BME280;3137;51.550;7.060;2023-04-10T13:52:27;100889.09;;;17.34;30.05
6208;BME280;3137;51.550;7.060;2023-04-10T13:54:53;100882.97;;;17.32;30.98
6208;BME280;3137;51.550;7.060;2023-04-10T13:57:20;100880.34;;;17.40;31.20
6208;BME280;3137;51.550;7.060;2023-04-10T13:59:46;100865.78;;;17.51;32.56
6208;BME280;3137;51.550;7.060;2023-04-10T14:02:13;100869.72;;;17.57;29.51